Time;durP1;ratioP1;P1;durP2;ratioP2;P2;SDS_P1;SDS_P2;PMS_P1;PMS_P2;Temp;Humidity;BMP_temperature;BMP_pressure;BME280_temperature;BME280_humidity;BME280_pressure;Samples;Min_cycle;Max_cycle;Signal;HPM_P1;HPM_P2
2022/06/15 00:02:15;;;;;;;0.00;0.00;;;;;;;;;;4953297;29;20027;-69
2022/06/15 00:04:46;;;;;;;0.00;0.00;;;;;;;;;;4952638;29;20059;-68
2022/06/15 00:07:11;;;;;;;0.00;0.00;;;;;;;;;;4951207;29;20027;-68
2022/06/15 00:09:37;;;;;;;0.00;0.00;;;;;;;;;;4952685;29;20098;-68
2022/06/15 00:12:02;;;;;;;2.92;2.45;;;;;;;;;;4952483;29;20102;-68
2022/06/15 00:14:31;;;;;;;0.82;0.82;;;;;;;;;;4952891;28;20037;-69
2022/06/15 00:16:56;;;;;;;0.35;0.35;;;;;;;;;;4950954;28;20026;-68
2022/06/15 00:19:22;;;;;;;0.20;0.20;;;;;;;;;;4952334;29;20024;-69
2022/06/15 00:21:50;;;;;;;0.00;0.00;;;;;;;;;;4951198;29;20448;-68
2022/06/15 00:24:17;;;;;;;0.00;0.00;;;;;;;;;;4951219;29;20031;-69
2022/06/15 00:26:46;;;;;;;0.20;0.20;;;;;;;;;;4950955;29;20019;-69
2022/06/15 00:29:14;;;;;;;0.00;0.00;;;;;;;;;;4951754;28;20034;-69
2022/06/15 00:31:58;;;;;;;0.00;0.00;;;;;;;;;;4951358;29;20354;-70
2022/06/15 00:34:25;;;;;;;0.20;0.20;;;;;;;;;;4951382;29;20115;-69
2022/06/15 00:36:51;;;;;;;0.20;0.20;;;;;;;;;;4951313;29;20035;-69
2022/06/15 00:39:16;;;;;;;0.00;0.00;;;;;;;;;;4952304;29;20039;-69
2022/06/15 00:41:41;;;;;;;0.00;0.00;;;;;;;;;;4951692;29;20540;-71
2022/06/15 00:44:21;;;;;;;0.00;0.00;;;;;;;;;;4951065;29;20484;-70
2022/06/15 00:47:04;;;;;;;0.57;0.57;;;;;;;;;;4933207;29;20087;-69
2022/06/15 00:49:33;;;;;;;0.00;0.00;;;;;;;;;;4952051;29;20488;-70
2022/06/15 00:52:06;;;;;;;0.15;0.15;;;;;;;;;;4951440;29;20102;-70
2022/06/15 00:54:34;;;;;;;0.00;0.00;;;;;;;;;;4950831;29;20488;-69
2022/06/15 00:57:01;;;;;;;0.10;0.10;;;;;;;;;;4951392;29;20015;-68
2022/06/15 00:59:32;;;;;;;0.00;0.00;;;;;;;;;;4951645;29;20086;-69
2022/06/15 01:01:57;;;;;;;0.10;0.10;;;;;;;;;;4951455;29;20016;-68
2022/06/15 01:04:23;;;;;;;0.20;0.20;;;;;;;;;;4951711;29;20142;-69
2022/06/15 01:06:48;;;;;;;0.00;0.00;;;;;;;;;;4950537;29;20376;-69
2022/06/15 01:09:16;;;;;;;0.00;0.00;;;;;;;;;;4951672;29;20023;-69
2022/06/15 01:11:44;;;;;;;0.20;0.20;;;;;;;;;;4951136;29;20262;-70
2022/06/15 01:14:28;;;;;;;0.00;0.00;;;;;;;;;;4950579;29;20059;-69
2022/06/15 01:16:59;;;;;;;0.10;0.10;;;;;;;;;;4950026;29;20019;-70
2022/06/15 01:19:33;;;;;;;0.00;0.00;;;;;;;;;;4951526;29;20564;-71
2022/06/15 01:21:58;;;;;;;0.15;0.15;;;;;;;;;;4950143;29;20046;-69
2022/06/15 01:24:48;;;;;;;0.03;0.03;;;;;;;;;;4951689;29;20495;-69
2022/06/15 01:27:13;;;;;;;;;;;;;;;;;;4950631;28;20039;-69
2022/06/15 01:29:57;;;;;;;0.00;0.00;;;;;;;;;;4951261;29;19949;-68
2022/06/15 01:32:34;;;;;;;0.13;0.13;;;;;;;;;;4951173;29;20105;-68
2022/06/15 01:35:02;;;;;;;0.80;0.28;;;;;;;;;;4933551;29;20129;-68
2022/06/15 01:37:33;;;;;;;0.00;0.00;;;;;;;;;;4950454;29;20445;-67
2022/06/15 01:40:02;;;;;;;1.10;0.80;;;;;;;;;;4949897;29;20015;-65
2022/06/15 01:42:34;;;;;;;0.20;0.20;;;;;;;;;;4950580;28;20031;-68
2022/06/15 01:45:25;;;;;;;0.00;0.00;;;;;;;;;;4950140;29;20085;-68
2022/06/15 01:47:52;;;;;;;0.22;0.22;;;;;;;;;;4946964;29;20110;-68
2022/06/15 01:50:19;;;;;;;0.98;0.63;;;;;;;;;;4951207;29;20019;-68
2022/06/15 01:52:50;;;;;;;0.00;0.00;;;;;;;;;;4949665;29;20366;-69
2022/06/15 01:55:28;;;;;;;0.03;0.03;;;;;;;;;;4949969;29;20640;-69
2022/06/15 01:57:55;;;;;;;0.55;0.55;;;;;;;;;;4949227;29;20187;-70
2022/06/15 02:00:22;;;;;;;0.20;0.20;;;;;;;;;;4950946;29;20106;-69
2022/06/15 02:02:47;;;;;;;0.08;0.08;;;;;;;;;;4950604;29;20468;-69
2022/06/15 02:05:16;;;;;;;0.10;0.10;;;;;;;;;;4950670;29;20135;-66
2022/06/15 02:07:45;;;;;;;0.17;0.17;;;;;;;;;;4949738;29;20522;-66
2022/06/15 02:10:16;;;;;;;0.00;0.00;;;;;;;;;;4951362;28;20027;-67
2022/06/15 02:13:04;;;;;;;0.00;0.00;;;;;;;;;;4950977;29;20037;-68
2022/06/15 02:15:30;;;;;;;0.35;0.22;;;;;;;;;;4913891;29;20039;-68
2022/06/15 02:18:00;;;;;;;0.00;0.00;;;;;;;;;;4951086;28;20085;-68
2022/06/15 02:20:28;;;;;;;0.10;0.10;;;;;;;;;;4951496;28;20015;-68
2022/06/15 02:22:55;;;;;;;0.10;0.10;;;;;;;;;;4950102;28;20023;-67
2022/06/15 02:25:21;;;;;;;0.00;0.00;;;;;;;;;;4950817;29;20023;-68
2022/06/15 02:27:48;;;;;;;0.20;0.20;;;;;;;;;;4949715;29;20031;-70
2022/06/15 02:30:16;;;;;;;0.13;0.13;;;;;;;;;;4950651;29;20019;-69
2022/06/15 02:32:42;;;;;;;0.00;0.00;;;;;;;;;;4951099;29;20030;-69
2022/06/15 02:35:11;;;;;;;0.00;0.00;;;;;;;;;;4950063;28;20035;-68
2022/06/15 02:37:36;;;;;;;0.00;0.00;;;;;;;;;;4950329;29;20023;-69
2022/06/15 02:40:02;;;;;;;0.45;0.45;;;;;;;;;;4950244;29;20023;-68
2022/06/15 02:42:27;;;;;;;0.00;0.00;;;;;;;;;;4950722;29;20444;-69
2022/06/15 02:44:54;;;;;;;0.00;0.00;;;;;;;;;;4950267;29;20380;-69
2022/06/15 02:47:20;;;;;;;0.00;0.00;;;;;;;;;;4950710;29;20027;-69
2022/06/15 02:49:48;;;;;;;0.00;0.00;;;;;;;;;;4947886;28;20039;-69
2022/06/15 02:52:14;;;;;;;0.00;0.00;;;;;;;;;;4949532;28;20035;-70
2022/06/15 02:54:41;;;;;;;0.28;0.28;;;;;;;;;;4933643;29;20031;-69
2022/06/15 02:57:07;;;;;;;0.00;0.00;;;;;;;;;;4952437;29;20031;-68
2022/06/15 02:59:32;;;;;;;0.00;0.00;;;;;;;;;;4953271;29;20042;-68
2022/06/15 03:01:57;;;;;;;0.00;0.00;;;;;;;;;;4953952;28;20025;-68
2022/06/15 03:04:23;;;;;;;0.00;0.00;;;;;;;;;;4953074;28;20046;-67
2022/06/15 03:06:48;;;;;;;0.25;0.25;;;;;;;;;;4953386;29;20031;-68
2022/06/15 03:09:13;;;;;;;0.00;0.00;;;;;;;;;;4953951;29;20384;-68
2022/06/15 03:11:40;;;;;;;0.00;0.00;;;;;;;;;;4953158;28;20102;-67
2022/06/15 03:14:05;;;;;;;0.00;0.00;;;;;;;;;;4953006;28;20398;-67
2022/06/15 03:16:30;;;;;;;0.00;0.00;;;;;;;;;;4953401;28;20311;-69
2022/06/15 03:18:56;;;;;;;0.05;0.03;;;;;;;;;;4951837;29;20155;-69
2022/06/15 03:21:21;;;;;;;0.00;0.00;;;;;;;;;;4953349;29;20492;-67
2022/06/15 03:23:46;;;;;;;0.63;0.63;;;;;;;;;;4934821;29;20059;-68
2022/06/15 03:26:12;;;;;;;0.35;0.25;;;;;;;;;;4953339;29;20094;-68
2022/06/15 03:28:37;;;;;;;0.15;0.15;;;;;;;;;;4953091;29;20028;-68
2022/06/15 03:31:03;;;;;;;0.00;0.00;;;;;;;;;;4951628;29;20466;-69
2022/06/15 03:33:28;;;;;;;0.00;0.00;;;;;;;;;;4952868;29;20114;-68
2022/06/15 03:35:53;;;;;;;0.00;0.00;;;;;;;;;;4952450;29;20453;-68
2022/06/15 03:38:19;;;;;;;0.10;0.10;;;;;;;;;;4953302;29;20019;-68
2022/06/15 03:40:46;;;;;;;0.00;0.00;;;;;;;;;;4953497;28;20027;-67
2022/06/15 03:43:11;;;;;;;0.00;0.00;;;;;;;;;;4952013;29;20019;-68
2022/06/15 03:45:37;;;;;;;0.00;0.00;;;;;;;;;;4953497;29;20425;-68
2022/06/15 03:48:03;;;;;;;0.00;0.00;;;;;;;;;;4951787;29;20019;-68
2022/06/15 03:50:29;;;;;;;2.30;2.20;;;;;;;;;;4953157;29;20031;-68
2022/06/15 03:52:54;;;;;;;0.10;0.10;;;;;;;;;;4951797;29;20038;-68
2022/06/15 03:55:20;;;;;;;0.20;0.20;;;;;;;;;;4952991;29;20031;-67
2022/06/15 03:57:46;;;;;;;0.00;0.00;;;;;;;;;;4952504;29;20065;-69
2022/06/15 04:00:13;;;;;;;0.00;0.00;;;;;;;;;;4952161;29;20107;-67
2022/06/15 04:02:38;;;;;;;0.10;0.10;;;;;;;;;;4952960;29;20094;-68
2022/06/15 04:05:04;;;;;;;0.00;0.00;;;;;;;;;;4952045;28;20058;-68
2022/06/15 04:10:14;;;;;;;0.00;0.00;;;;;;;;;;4952765;29;20031;-68
2022/06/15 04:12:39;;;;;;;0.70;0.70;;;;;;;;;;4952565;28;20031;-68
2022/06/15 04:15:05;;;;;;;0.08;0.08;;;;;;;;;;4951290;29;20031;-68
2022/06/15 04:17:30;;;;;;;0.00;0.00;;;;;;;;;;4952267;29;20034;-67
2022/06/15 04:22:39;;;;;;;0.20;0.20;;;;;;;;;;4951349;29;20401;-69
2022/06/15 04:25:05;;;;;;;0.05;0.05;;;;;;;;;;4951524;29;20027;-69
2022/06/15 04:27:32;;;;;;;0.00;0.00;;;;;;;;;;4951518;29;20023;-68
2022/06/15 04:29:58;;;;;;;0.38;0.38;;;;;;;;;;4950892;29;20031;-69
2022/06/15 04:32:23;;;;;;;0.52;0.43;;;;;;;;;;4950818;29;20029;-67
2022/06/15 04:34:48;;;;;;;1.65;1.65;;;;;;;;;;4952121;29;20059;-68
2022/06/15 04:37:13;;;;;;;0.00;0.00;;;;;;;;;;4951869;29;20038;-69
2022/06/15 04:39:38;;;;;;;0.40;0.40;;;;;;;;;;4951890;29;20027;-69
2022/06/15 04:42:04;;;;;;;0.00;0.00;;;;;;;;;;4951714;29;20023;-68
2022/06/15 04:44:29;;;;;;;0.13;0.13;;;;;;;;;;4951256;28;20027;-68
2022/06/15 04:46:54;;;;;;;0.00;0.00;;;;;;;;;;4951684;29;20090;-69
2022/06/15 04:49:20;;;;;;;0.00;0.00;;;;;;;;;;4952326;28;20473;-69
2022/06/15 04:51:45;;;;;;;0.00;0.00;;;;;;;;;;4952078;29;20019;-69
2022/06/15 04:54:10;;;;;;;0.00;0.00;;;;;;;;;;4951147;29;20027;-68
2022/06/15 04:56:37;;;;;;;0.65;0.65;;;;;;;;;;4950747;28;20026;-69
2022/06/15 04:59:03;;;;;;;0.00;0.00;;;;;;;;;;4951128;28;20079;-69
2022/06/15 05:01:28;;;;;;;0.00;0.00;;;;;;;;;;4951653;29;20019;-68
2022/06/15 05:03:53;;;;;;;0.00;0.00;;;;;;;;;;4951071;29;20051;-67
2022/06/15 05:06:21;;;;;;;0.00;0.00;;;;;;;;;;4951638;28;20491;-69
2022/06/15 05:08:47;;;;;;;0.10;0.10;;;;;;;;;;4933964;29;20027;-68
2022/06/15 05:11:12;;;;;;;0.00;0.00;;;;;;;;;;4951005;29;20435;-68
2022/06/15 05:13:37;;;;;;;0.00;0.00;;;;;;;;;;4950691;29;20023;-68
2022/06/15 05:16:02;;;;;;;0.00;0.00;;;;;;;;;;4950906;28;20455;-69
2022/06/15 05:18:28;;;;;;;0.00;0.00;;;;;;;;;;4951641;29;20380;-68
2022/06/15 05:20:53;;;;;;;0.00;0.00;;;;;;;;;;4949329;29;20031;-68
2022/06/15 05:23:19;;;;;;;0.00;0.00;;;;;;;;;;4951191;29;20137;-67
2022/06/15 05:25:44;;;;;;;0.00;0.00;;;;;;;;;;4951337;29;20054;-69
2022/06/15 05:28:12;;;;;;;6.82;0.57;;;;;;;;;;4950441;29;20035;-68
2022/06/15 05:30:37;;;;;;;0.00;0.00;;;;;;;;;;4950400;28;20042;-69
2022/06/15 05:33:02;;;;;;;0.00;0.00;;;;;;;;;;4949581;29;20030;-67
2022/06/15 05:35:28;;;;;;;0.00;0.00;;;;;;;;;;4951237;29;20030;-68
2022/06/15 05:37:53;;;;;;;0.00;0.00;;;;;;;;;;4949795;29;20389;-68
2022/06/15 05:40:18;;;;;;;0.00;0.00;;;;;;;;;;4950894;29;20019;-68
2022/06/15 05:42:44;;;;;;;0.00;0.00;;;;;;;;;;4950143;28;20135;-68
2022/06/15 05:45:09;;;;;;;0.38;0.38;;;;;;;;;;4950616;29;20114;-67
2022/06/15 05:47:34;;;;;;;1.75;0.15;;;;;;;;;;4950871;29;20026;-67
2022/06/15 05:49:59;;;;;;;0.38;0.38;;;;;;;;;;4950401;29;20082;-67
2022/06/15 05:52:25;;;;;;;0.00;0.00;;;;;;;;;;4951646;29;20029;-66
2022/06/15 05:54:50;;;;;;;0.00;0.00;;;;;;;;;;4950376;29;20058;-67
2022/06/15 05:57:20;;;;;;;0.20;0.20;;;;;;;;;;4951109;29;20015;-68
2022/06/15 05:59:46;;;;;;;0.00;0.00;;;;;;;;;;4950395;29;20029;-66
2022/06/15 06:02:12;;;;;;;0.00;0.00;;;;;;;;;;4950857;29;20031;-67
2022/06/15 06:04:37;;;;;;;0.00;0.00;;;;;;;;;;4950302;29;20111;-66
2022/06/15 06:07:03;;;;;;;0.25;0.25;;;;;;;;;;4950676;28;20041;-67
2022/06/15 06:09:28;;;;;;;0.00;0.00;;;;;;;;;;4950659;29;20016;-68
2022/06/15 06:11:54;;;;;;;0.00;0.00;;;;;;;;;;4949906;29;20042;-66
2022/06/15 06:14:20;;;;;;;0.00;0.00;;;;;;;;;;4950215;28;20023;-67
2022/06/15 06:16:53;;;;;;;0.00;0.00;;;;;;;;;;4950864;29;20019;-68
2022/06/15 06:19:19;;;;;;;0.20;0.20;;;;;;;;;;4951119;29;20118;-68
2022/06/15 06:21:47;;;;;;;0.10;0.10;;;;;;;;;;4950753;29;20039;-66
2022/06/15 06:24:12;;;;;;;0.63;0.63;;;;;;;;;;4950012;29;20011;-66
2022/06/15 06:26:38;;;;;;;0.00;0.00;;;;;;;;;;4951311;28;20078;-69
2022/06/15 06:29:04;;;;;;;0.00;0.00;;;;;;;;;;4953678;29;20035;-67
2022/06/15 06:31:29;;;;;;;0.00;0.00;;;;;;;;;;4954936;29;20050;-67
2022/06/15 06:33:55;;;;;;;0.00;0.00;;;;;;;;;;4954562;28;20042;-68
2022/06/15 06:36:29;;;;;;;0.00;0.00;;;;;;;;;;4953259;29;20465;-67
2022/06/15 06:38:54;;;;;;;0.00;0.00;;;;;;;;;;4952990;29;20023;-67
2022/06/15 06:41:21;;;;;;;0.15;0.15;;;;;;;;;;4954425;29;20393;-68
2022/06/15 06:43:46;;;;;;;0.00;0.00;;;;;;;;;;4954768;29;20102;-68
2022/06/15 06:46:11;;;;;;;0.00;0.00;;;;;;;;;;4954553;29;20472;-67
2022/06/15 06:48:36;;;;;;;0.00;0.00;;;;;;;;;;4954134;29;20045;-66
2022/06/15 06:51:02;;;;;;;0.22;0.22;;;;;;;;;;4954135;28;20155;-68
2022/06/15 06:53:27;;;;;;;0.43;0.40;;;;;;;;;;4953685;29;20023;-67
2022/06/15 06:55:55;;;;;;;0.00;0.00;;;;;;;;;;4953586;28;20030;-68
2022/06/15 06:58:26;;;;;;;0.53;0.43;;;;;;;;;;4953900;29;20031;-67
2022/06/15 07:01:02;;;;;;;0.00;0.00;;;;;;;;;;4953340;29;20287;-68
2022/06/15 07:03:36;;;;;;;1.77;1.17;;;;;;;;;;4953900;29;20153;-68
2022/06/15 07:06:02;;;;;;;0.00;0.00;;;;;;;;;;4953765;29;20414;-68
2022/06/15 07:08:34;;;;;;;0.20;0.20;;;;;;;;;;4952716;29;20384;-68
2022/06/15 07:11:06;;;;;;;0.00;0.00;;;;;;;;;;4936558;29;20029;-67
2022/06/15 07:13:40;;;;;;;0.00;0.00;;;;;;;;;;4953439;28;20031;-67
2022/06/15 07:16:10;;;;;;;0.00;0.00;;;;;;;;;;4953640;29;20029;-64
2022/06/15 07:18:42;;;;;;;0.00;0.00;;;;;;;;;;4954303;29;20027;-65
2022/06/15 07:21:11;;;;;;;0.00;0.00;;;;;;;;;;4954019;28;20034;-66
2022/06/15 07:23:40;;;;;;;0.00;0.00;;;;;;;;;;4952184;29;20094;-66
2022/06/15 07:26:10;;;;;;;0.00;0.00;;;;;;;;;;4953759;28;20026;-67
2022/06/15 07:28:38;;;;;;;0.00;0.00;;;;;;;;;;4934596;29;20030;-67
2022/06/15 07:31:03;;;;;;;0.00;0.00;;;;;;;;;;4953296;28;20025;-67
2022/06/15 07:33:29;;;;;;;0.47;0.47;;;;;;;;;;4954172;28;20110;-66
2022/06/15 07:35:54;;;;;;;0.00;0.00;;;;;;;;;;4935772;29;20049;-66
2022/06/15 07:38:22;;;;;;;0.00;0.00;;;;;;;;;;4951381;28;20127;-67
2022/06/15 07:40:48;;;;;;;0.00;0.00;;;;;;;;;;4953121;28;20051;-67
2022/06/15 07:43:13;;;;;;;0.00;0.00;;;;;;;;;;4951729;29;20335;-67
2022/06/15 07:45:38;;;;;;;0.00;0.00;;;;;;;;;;4953830;29;20031;-66
2022/06/15 07:50:48;;;;;;;0.00;0.00;;;;;;;;;;4951921;29;20596;-66
2022/06/15 07:53:13;;;;;;;0.00;0.00;;;;;;;;;;4952379;29;20035;-67
2022/06/15 07:55:40;;;;;;;6.13;0.55;;;;;;;;;;4953277;29;20294;-67
2022/06/15 07:58:06;;;;;;;0.00;0.00;;;;;;;;;;4935678;29;20114;-68
2022/06/15 08:00:32;;;;;;;0.35;0.35;;;;;;;;;;4952373;29;20110;-68
2022/06/15 08:02:58;;;;;;;0.00;0.00;;;;;;;;;;4952853;29;20469;-70
2022/06/15 08:05:24;;;;;;;0.00;0.00;;;;;;;;;;4952974;29;20095;-68
2022/06/15 08:07:50;;;;;;;0.77;0.70;;;;;;;;;;4952715;29;20023;-67
2022/06/15 08:10:18;;;;;;;0.10;0.10;;;;;;;;;;4952801;28;20037;-66
2022/06/15 08:12:44;;;;;;;0.00;0.00;;;;;;;;;;4951973;29;20460;-66
2022/06/15 08:15:09;;;;;;;0.08;0.08;;;;;;;;;;4951644;28;20063;-66
2022/06/15 08:17:40;;;;;;;0.00;0.00;;;;;;;;;;4936051;28;20043;-65
2022/06/15 08:20:11;;;;;;;0.00;0.00;;;;;;;;;;4954955;28;20049;-66
2022/06/15 08:22:39;;;;;;;0.00;0.00;;;;;;;;;;4951912;28;20095;-65
2022/06/15 08:25:04;;;;;;;;;;;;;;;;;;4951688;29;20562;-66
2022/06/15 08:27:30;;;;;;;0.00;0.00;;;;;;;;;;4952375;29;20280;-66
2022/06/15 08:29:55;;;;;;;0.00;0.00;;;;;;;;;;4951457;29;20023;-66
2022/06/15 08:32:20;;;;;;;0.25;0.10;;;;;;;;;;4935338;29;20051;-67
2022/06/15 08:34:49;;;;;;;0.00;0.00;;;;;;;;;;4951666;28;20074;-66
2022/06/15 08:37:14;;;;;;;;;;;;;;;;;;4953898;28;20027;-67
2022/06/15 08:39:40;;;;;;;0.00;0.00;;;;;;;;;;4952266;28;20279;-65
2022/06/15 08:42:31;;;;;;;0.00;0.00;;;;;;;;;;4951719;29;20030;-66
2022/06/15 08:45:08;;;;;;;0.00;0.00;;;;;;;;;;4950599;29;20042;-67
2022/06/15 08:47:36;;;;;;;0.00;0.00;;;;;;;;;;4952232;29;20074;-67
2022/06/15 08:50:07;;;;;;;0.00;0.00;;;;;;;;;;4953678;28;20433;-66
2022/06/15 08:53:04;;;;;;;0.10;0.10;;;;;;;;;;4951920;28;20113;-70
2022/06/15 08:55:45;;;;;;;0.00;0.00;;;;;;;;;;4893683;29;20056;-67
2022/06/15 08:58:15;;;;;;;0.00;0.00;;;;;;;;;;4893104;29;20366;-71
2022/06/15 09:00:41;;;;;;;0.38;0.38;;;;;;;;;;4893155;29;20032;-69
2022/06/15 09:03:19;;;;;;;0.00;0.00;;;;;;;;;;4891067;29;20383;-72
2022/06/15 09:05:50;;;;;;;0.00;0.00;;;;;;;;;;4891833;29;20032;-70
2022/06/15 09:08:41;;;;;;;0.00;0.00;;;;;;;;;;4891737;29;20080;-71
2022/06/15 09:11:07;;;;;;;0.00;0.00;;;;;;;;;;4888829;29;20032;-70
2022/06/15 09:13:41;;;;;;;0.00;0.00;;;;;;;;;;4892195;29;20100;-70
2022/06/15 09:16:14;;;;;;;0.00;0.00;;;;;;;;;;4891877;29;20163;-70
2022/06/15 09:18:39;;;;;;;0.00;0.00;;;;;;;;;;4892295;29;20469;-71
2022/06/15 09:21:10;;;;;;;0.00;0.00;;;;;;;;;;4891937;29;20039;-71
2022/06/15 09:23:38;;;;;;;0.00;0.00;;;;;;;;;;4891732;29;20029;-72
2022/06/15 09:26:06;;;;;;;0.00;0.00;;;;;;;;;;4891726;29;20547;-72
2022/06/15 09:28:43;;;;;;;0.00;0.00;;;;;;;;;;4891646;29;20131;-68
2022/06/15 09:31:16;;;;;;;0.10;0.10;;;;;;;;;;4921087;29;20039;-70
2022/06/15 09:33:51;;;;;;;0.00;0.00;;;;;;;;;;4949674;29;20091;-69
2022/06/15 09:36:18;;;;;;;0.00;0.00;;;;;;;;;;4950362;29;20031;-70
2022/06/15 09:38:43;;;;;;;0.10;0.10;;;;;;;;;;4950143;29;20372;-70
2022/06/15 09:41:15;;;;;;;0.00;0.00;;;;;;;;;;4950806;29;20038;-70
2022/06/15 09:43:40;;;;;;;0.00;0.00;;;;;;;;;;4950925;29;20023;-70
2022/06/15 09:46:25;;;;;;;0.00;0.00;;;;;;;;;;4950306;29;20027;-70
2022/06/15 09:48:53;;;;;;;0.38;0.25;;;;;;;;;;4951113;29;20271;-69
2022/06/15 09:51:28;;;;;;;0.00;0.00;;;;;;;;;;4950685;29;20081;-70
2022/06/15 09:54:12;;;;;;;0.00;0.00;;;;;;;;;;4951066;29;20030;-69
2022/06/15 09:56:38;;;;;;;0.00;0.00;;;;;;;;;;4950375;29;20023;-68
2022/06/15 09:59:05;;;;;;;0.00;0.00;;;;;;;;;;4949940;29;20030;-69
2022/06/15 10:01:35;;;;;;;0.00;0.00;;;;;;;;;;4949184;28;20492;-68
2022/06/15 10:04:02;;;;;;;0.00;0.00;;;;;;;;;;4948987;29;20050;-69
2022/06/15 10:06:33;;;;;;;0.00;0.00;;;;;;;;;;4950460;29;20031;-68
2022/06/15 10:09:00;;;;;;;1.13;1.10;;;;;;;;;;4949662;29;20026;-70
2022/06/15 10:11:35;;;;;;;0.32;0.32;;;;;;;;;;4949941;29;20023;-68
2022/06/15 10:14:37;;;;;;;1.45;0.38;;;;;;;;;;4949578;29;20031;-69
2022/06/15 10:17:02;;;;;;;0.00;0.00;;;;;;;;;;4872663;29;20037;-68
2022/06/15 10:19:29;;;;;;;0.00;0.00;;;;;;;;;;4935084;29;20090;-69
2022/06/15 10:21:56;;;;;;;0.00;0.00;;;;;;;;;;4950437;29;20029;-67
2022/06/15 10:24:39;;;;;;;0.00;0.00;;;;;;;;;;4953710;28;20038;-70
2022/06/15 10:27:23;;;;;;;0.00;0.00;;;;;;;;;;4949094;29;20395;-69
2022/06/15 10:29:59;;;;;;;0.00;0.00;;;;;;;;;;4949758;29;20020;-68
2022/06/15 10:32:24;;;;;;;0.00;0.00;;;;;;;;;;4952830;28;20030;-69
2022/06/15 10:34:52;;;;;;;4.80;1.17;;;;;;;;;;4951491;28;20515;-69
2022/06/15 10:37:26;;;;;;;1.92;1.55;;;;;;;;;;4951103;28;20075;-69
2022/06/15 10:39:53;;;;;;;0.00;0.00;;;;;;;;;;4948589;29;20035;-69
2022/06/15 10:42:21;;;;;;;0.17;0.13;;;;;;;;;;4950050;28;20505;-68
2022/06/15 10:44:49;;;;;;;0.83;0.83;;;;;;;;;;4949522;29;20115;-69
2022/06/15 10:47:18;;;;;;;0.15;0.15;;;;;;;;;;4948435;29;20038;-68
2022/06/15 10:49:45;;;;;;;0.00;0.00;;;;;;;;;;4949286;29;20051;-69
2022/06/15 10:52:37;;;;;;;0.00;0.00;;;;;;;;;;4948602;29;20666;-69
2022/06/15 11:03:36;;;;;;;0.00;0.00;;;;;;;;;;4949316;29;20194;-68
2022/06/15 11:06:01;;;;;;;0.00;0.00;;;;;;;;;;4949641;29;20090;-68
2022/06/15 11:08:29;;;;;;;0.63;0.63;;;;;;;;;;4949278;28;20275;-68
2022/06/15 11:11:13;;;;;;;0.08;0.08;;;;;;;;;;4950181;28;20033;-68
2022/06/15 11:13:50;;;;;;;0.00;0.00;;;;;;;;;;4950111;28;20385;-64
2022/06/15 11:19:06;;;;;;;0.00;0.00;;;;;;;;;;4952804;29;20077;-63
2022/06/15 11:21:35;;;;;;;0.00;0.00;;;;;;;;;;4953466;29;20027;-63
2022/06/15 11:24:14;;;;;;;0.00;0.00;;;;;;;;;;4952698;29;20027;-64
2022/06/15 11:26:57;;;;;;;0.08;0.08;;;;;;;;;;4950141;29;20039;-64
2022/06/15 11:29:37;;;;;;;0.20;0.20;;;;;;;;;;4950855;28;20114;-65
2022/06/15 11:32:12;;;;;;;0.00;0.00;;;;;;;;;;4952460;29;20074;-65
2022/06/15 11:34:42;;;;;;;0.00;0.00;;;;;;;;;;4953295;28;20528;-65
2022/06/15 11:37:12;;;;;;;0.00;0.00;;;;;;;;;;4951383;29;20091;-64
2022/06/15 11:39:59;;;;;;;0.30;0.30;;;;;;;;;;4953527;28;20011;-64
2022/06/15 11:42:25;;;;;;;0.00;0.00;;;;;;;;;;4952919;29;20050;-65
2022/06/15 11:44:51;;;;;;;0.00;0.00;;;;;;;;;;4956048;28;20019;-70
2022/06/15 11:47:16;;;;;;;0.00;0.00;;;;;;;;;;4955457;28;20110;-65
2022/06/15 11:50:02;;;;;;;0.00;0.00;;;;;;;;;;4952583;29;20074;-65
2022/06/15 11:52:39;;;;;;;1.20;0.35;;;;;;;;;;4954020;29;20338;-65
2022/06/15 11:55:10;;;;;;;0.15;0.15;;;;;;;;;;4950379;29;20107;-65
2022/06/15 11:57:47;;;;;;;0.00;0.00;;;;;;;;;;4934999;29;20033;-66
2022/06/15 12:00:22;;;;;;;0.15;0.15;;;;;;;;;;4953427;29;20065;-65
2022/06/15 12:02:50;;;;;;;0.00;0.00;;;;;;;;;;4951911;28;20372;-66
2022/06/15 12:05:34;;;;;;;0.00;0.00;;;;;;;;;;4950897;28;20461;-66
2022/06/15 12:08:20;;;;;;;0.00;0.00;;;;;;;;;;4951443;28;20032;-67
2022/06/15 12:10:50;;;;;;;0.77;0.77;;;;;;;;;;4950052;29;20509;-66
2022/06/15 12:13:34;;;;;;;0.20;0.20;;;;;;;;;;4952229;29;20027;-66
2022/06/15 12:16:06;;;;;;;0.00;0.00;;;;;;;;;;4950114;29;20114;-66
2022/06/15 12:18:31;;;;;;;0.15;0.15;;;;;;;;;;4950929;29;20500;-67
2022/06/15 12:21:02;;;;;;;0.00;0.00;;;;;;;;;;4951768;29;20031;-67
2022/06/15 12:23:33;;;;;;;0.38;0.38;;;;;;;;;;4952922;28;20259;-67
2022/06/15 12:26:17;;;;;;;0.15;0.15;;;;;;;;;;4947130;28;20027;-67
2022/06/15 12:28:45;;;;;;;9.30;0.47;;;;;;;;;;4951542;29;20078;-67
2022/06/15 12:31:19;;;;;;;0.00;0.00;;;;;;;;;;4952943;29;20113;-66
2022/06/15 12:33:47;;;;;;;0.98;0.80;;;;;;;;;;4951989;29;20027;-67
2022/06/15 12:36:18;;;;;;;1.08;1.08;;;;;;;;;;4954420;29;20024;-65
2022/06/15 12:38:53;;;;;;;0.00;0.00;;;;;;;;;;4953022;29;20361;-65
2022/06/15 12:44:12;;;;;;;0.10;0.10;;;;;;;;;;4952932;29;20042;-64
2022/06/15 12:46:38;;;;;;;0.00;0.00;;;;;;;;;;4953091;29;20393;-64
2022/06/15 12:49:06;;;;;;;7.95;4.38;;;;;;;;;;4952740;29;20027;-64
2022/06/15 12:51:36;;;;;;;0.60;0.60;;;;;;;;;;4952896;29;20675;-63
2022/06/15 12:54:24;;;;;;;0.05;0.05;;;;;;;;;;4949402;29;20324;-63
2022/06/15 12:56:52;;;;;;;0.00;0.00;;;;;;;;;;4951793;29;20034;-63
2022/06/15 12:59:36;;;;;;;0.10;0.10;;;;;;;;;;4949333;29;20393;-63
2022/06/15 13:02:01;;;;;;;0.30;0.30;;;;;;;;;;4948290;29;20086;-68
2022/06/15 13:04:31;;;;;;;0.10;0.10;;;;;;;;;;4950944;29;20047;-70
2022/06/15 13:07:15;;;;;;;0.00;0.00;;;;;;;;;;4933534;29;20278;-69
2022/06/15 13:09:41;;;;;;;0.00;0.00;;;;;;;;;;4951329;29;20067;-68
2022/06/15 13:12:07;;;;;;;0.00;0.00;;;;;;;;;;4950426;29;20469;-69
2022/06/15 13:14:35;;;;;;;0.00;0.00;;;;;;;;;;4949724;28;20019;-69
2022/06/15 13:17:12;;;;;;;0.22;0.22;;;;;;;;;;4950640;29;20023;-70
2022/06/15 13:19:40;;;;;;;0.00;0.00;;;;;;;;;;4951167;29;20057;-69
2022/06/15 13:22:11;;;;;;;0.03;0.03;;;;;;;;;;4949621;29;20074;-69
2022/06/15 13:24:53;;;;;;;0.00;0.00;;;;;;;;;;4948529;29;20434;-70
2022/06/15 13:27:33;;;;;;;0.00;0.00;;;;;;;;;;4949291;29;20532;-70
2022/06/15 13:30:13;;;;;;;0.00;0.00;;;;;;;;;;4947670;29;20031;-69
2022/06/15 13:33:00;;;;;;;0.00;0.00;;;;;;;;;;4931453;29;20511;-68
2022/06/15 13:35:28;;;;;;;0.00;0.00;;;;;;;;;;4949631;29;20104;-68
2022/06/15 13:38:16;;;;;;;0.00;0.00;;;;;;;;;;4948685;28;20026;-68
2022/06/15 13:40:54;;;;;;;0.00;0.00;;;;;;;;;;4926135;29;20057;-69
2022/06/15 13:43:20;;;;;;;0.00;0.00;;;;;;;;;;4947795;29;20098;-68
2022/06/15 13:45:46;;;;;;;0.40;0.40;;;;;;;;;;4941111;29;20028;-68
2022/06/15 13:48:13;;;;;;;0.20;0.20;;;;;;;;;;4948703;29;20031;-68
2022/06/15 13:50:41;;;;;;;0.10;0.03;;;;;;;;;;4946776;29;20027;-69
2022/06/15 13:53:12;;;;;;;0.00;0.00;;;;;;;;;;4946125;29;20358;-70
2022/06/15 13:55:45;;;;;;;0.00;0.00;;;;;;;;;;4948990;29;20050;-70
2022/06/15 13:58:17;;;;;;;0.32;0.32;;;;;;;;;;4949398;29;20074;-70
2022/06/15 14:00:49;;;;;;;0.15;0.15;;;;;;;;;;4949195;29;20527;-69
2022/06/15 14:03:24;;;;;;;0.05;0.03;;;;;;;;;;4946341;29;20027;-69
2022/06/15 14:05:58;;;;;;;0.00;0.00;;;;;;;;;;4947645;29;20035;-68
2022/06/15 14:08:43;;;;;;;0.00;0.00;;;;;;;;;;4949254;29;20775;-68
2022/06/15 14:11:14;;;;;;;0.93;0.93;;;;;;;;;;4929195;29;20086;-69
2022/06/15 14:13:39;;;;;;;0.00;0.00;;;;;;;;;;4945569;29;20192;-69
2022/06/15 14:16:15;;;;;;;0.00;0.00;;;;;;;;;;4945815;29;20102;-69
2022/06/15 14:18:43;;;;;;;0.10;0.10;;;;;;;;;;4945835;29;20255;-69
2022/06/15 14:21:13;;;;;;;2.30;2.10;;;;;;;;;;4943414;29;20043;-69
2022/06/15 14:23:38;;;;;;;0.00;0.00;;;;;;;;;;4947470;28;20027;-64
2022/06/15 14:26:04;;;;;;;0.00;0.00;;;;;;;;;;4929234;29;20118;-68
2022/06/15 14:28:30;;;;;;;0.03;0.03;;;;;;;;;;4944818;29;20023;-67
2022/06/15 14:31:04;;;;;;;0.68;0.68;;;;;;;;;;4946051;29;20725;-73
2022/06/15 14:33:30;;;;;;;0.00;0.00;;;;;;;;;;4944439;29;20046;-71
2022/06/15 14:36:16;;;;;;;0.00;0.00;;;;;;;;;;4945728;29;20484;-72
2022/06/15 14:38:43;;;;;;;0.10;0.10;;;;;;;;;;4946132;29;20147;-69
2022/06/15 14:41:11;;;;;;;0.00;0.00;;;;;;;;;;4944864;28;20140;-68
2022/06/15 14:43:36;;;;;;;0.00;0.00;;;;;;;;;;4947501;28;20022;-68
2022/06/15 14:46:04;;;;;;;0.00;0.00;;;;;;;;;;4946852;28;20680;-68
2022/06/15 14:48:33;;;;;;;0.00;0.00;;;;;;;;;;4946561;28;20118;-68
2022/06/15 14:50:58;;;;;;;;;;;;;;;;;;4951242;29;20035;-68
2022/06/15 14:53:23;;;;;;;0.60;0.35;;;;;;;;;;4932866;29;19925;-68
2022/06/15 14:55:49;;;;;;;0.00;0.00;;;;;;;;;;4950728;29;20031;-69
2022/06/15 14:58:15;;;;;;;0.00;0.00;;;;;;;;;;4950161;29;20282;-69
2022/06/15 15:00:41;;;;;;;0.00;0.00;;;;;;;;;;4950408;28;20050;-69
2022/06/15 15:03:21;;;;;;;0.00;0.00;;;;;;;;;;4950134;28;20039;-69
2022/06/15 15:05:46;;;;;;;0.00;0.00;;;;;;;;;;4947115;29;20046;-68
2022/06/15 15:08:36;;;;;;;0.00;0.00;;;;;;;;;;4949068;29;20034;-70
2022/06/15 15:11:03;;;;;;;0.00;0.00;;;;;;;;;;4948308;29;20043;-69
2022/06/15 15:13:38;;;;;;;0.00;0.00;;;;;;;;;;4948646;29;20768;-67
2022/06/15 15:16:03;;;;;;;0.00;0.00;;;;;;;;;;4930215;29;20027;-67
2022/06/15 15:18:28;;;;;;;0.05;0.05;;;;;;;;;;4947043;29;20035;-69
2022/06/15 15:20:55;;;;;;;0.00;0.00;;;;;;;;;;4930432;29;20019;-70